Terminal Aerodrome Forecast
Issued by NWS Sterling, VA

Current Version | Previous Version | Text Only | Print | Product List | Glossary On
Versions: 1 2 3 4 5 6 7 8 9 10 11 12 13 14 15 16 17 18
000
FTUS41 KLWX 312300
TAFCHO
TAF
KCHO 312325Z 0100/0124 22006KT 5SM -TSRA SCT040CB BKN110
     FM010100 22007KT 6SM -SHRA OVC060
     FM010500 21004KT P6SM OVC045
     FM010900 21005KT 5SM BR BKN100
     FM011200 22005KT 5SM BR SCT035
     FM011500 25007KT P6SM SCT045
     FM012300 VRB03KT P6SM FEW060=

USA.gov is the U.S. government's official web portal to all federal, state and local government web resources and services.